Terminal Aerodrome Forecast
Issued by NWS Bismarck, ND

Home | Current Version | Previous Version | Graphics & Text | Print | Product List | Glossary On
Versions: 1 2 3 4 5 6 7 8 9 10 11 12 13 14 15 16 17 18 19 20 21
000
FTUS43 KBIS 140537
TAFBIS
TAF
KBIS 140537Z 1406/1506 21005KT P6SM -SN BKN012
     FM140700 21005KT P6SM SKC
     FM141400 29008KT P6SM SCT025 BKN040
     FM141500 30010KT 3SM -SN BKN030 OVC040 WS020/32035KT
     FM141700 31018G25KT 5SM -SN BLSN SCT025 OVC045
     FM150000 32013KT P6SM OVC045
     FM150400 34008KT P6SM FEW150=

USA.gov is the U.S. government's official web portal to all federal, state and local government web resources and services.